首页
METAR-TAF:

METAR-TAF

机场 :

Geilenkirchen, 德国

纬度: 50-57-39N, 经度: 006-2-33E, 海拔: 90米

当前天气观测

该预报发布于30分钟前的21:50 UTC
风速5节,风向西南
温度 13°C
湿度 94%
气压 1009 hPa
能见度10公里或以上
多云层高于6000英尺
多云层高于8000英尺
小雨

METAR: ETNG 152150Z 22005KT 9999 -RA BKN060 BKN080 13/12 Q1009

时间: 00:20 (22:20 UTC)

预报

该预报发布于2小时和20分钟前的20:00 UTC
预报有效从15日的 21点(UTC)到 16日的 12点(UTC)
风速8节,风向西南
能見度: 9000
散云层高于2000英尺
多云层高于3500英尺
小雨
成为
从 15日的 21点(UTC)到 15日的 23点(UTC)
能见度10公里或以上
几率 30% :
短暂存在
从 15日的 23点(UTC)到 16日的 04点(UTC)
小阵雨, 小雨
成为
从 16日的 08点(UTC)到 16日的 10点(UTC)
风速12节,风向南转西南,有时为22节阵风
小雨

TAF: ETNG 152000Z 1521/1612 22008KT 9000 -RA SCT020 BKN035 BECMG 1521/1523 9999 NSW PROB30 TEMPO 1523/1604 -SHRA -RA BECMG 1608/1610 21012G22KT -RA

超过4000个机场的气象观测和天气预报(METAR&TAF报告)。

可查询的气象台以黄色和红色小点在地图上表示。

将鼠标移到小点上方,可查看气象台名称。

然后点击查看天气观测和预报。

如需切换地图:点击带黑十字的绿色按钮放大地图;点击带横线的绿色按钮缩小地图;或者点击绿色箭头查看邻近地区的地图。


METAR-TAF: